createdAt,value
2022-10-31T00:02:15.569Z,95.5
2022-10-31T00:07:21.695Z,95.5
2022-10-31T00:12:27.912Z,95.5
2022-10-31T00:17:34.114Z,95.5
2022-10-31T00:22:40.332Z,96.0
2022-10-31T00:27:46.603Z,95.5
2022-10-31T00:32:52.749Z,96.0
2022-10-31T00:37:57.976Z,96.0
2022-10-31T00:43:04.576Z,96.0
2022-10-31T00:48:09.413Z,96.0
2022-10-31T00:53:15.637Z,96.0
2022-10-31T00:58:21.846Z,95.5
2022-10-31T01:03:28.068Z,96.0
2022-10-31T01:08:34.276Z,95.5
2022-10-31T01:13:40.492Z,95.5
2022-10-31T01:18:46.710Z,95.5
2022-10-31T01:23:52.955Z,95.5
2022-10-31T01:28:59.140Z,95.5
2022-10-31T01:34:05.364Z,95.5
2022-10-31T01:39:11.565Z,95.5
2022-10-31T01:44:17.774Z,95.5
2022-10-31T01:49:23.984Z,96.0
2022-10-31T01:54:30.203Z,96.0
2022-10-31T01:59:36.407Z,96.0
2022-10-31T02:04:42.628Z,96.5
2022-10-31T02:09:48.836Z,96.5
2022-10-31T02:14:55.046Z,96.0
2022-10-31T02:20:01.328Z,96.0
2022-10-31T02:25:07.489Z,96.0
2022-10-31T02:30:13.688Z,96.0
2022-10-31T02:35:18.910Z,96.0
2022-10-31T02:40:25.115Z,96.0
2022-10-31T02:45:31.326Z,96.5
2022-10-31T02:50:36.568Z,96.5
2022-10-31T02:55:42.771Z,96.5
2022-10-31T03:00:52.037Z,96.5
2022-10-31T03:05:55.206Z,96.5
2022-10-31T03:11:01.546Z,96.5
2022-10-31T03:16:07.604Z,96.5
2022-10-31T03:21:13.817Z,97.0
2022-10-31T03:26:20.021Z,96.5
2022-10-31T03:31:26.231Z,96.5
2022-10-31T03:36:32.441Z,97.0
2022-10-31T03:41:38.648Z,97.0
2022-10-31T03:46:44.852Z,97.0
2022-10-31T03:51:51.064Z,97.0
2022-10-31T03:56:57.287Z,97.0
2022-10-31T04:02:03.643Z,97.0
2022-10-31T04:07:09.699Z,97.0
2022-10-31T04:12:15.900Z,97.0
2022-10-31T04:17:22.107Z,97.0
2022-10-31T04:22:28.321Z,97.0
2022-10-31T04:27:34.529Z,97.0
2022-10-31T04:32:40.733Z,97.0
2022-10-31T04:42:52.179Z,97.0
2022-10-31T04:47:57.763Z,97.0
2022-10-31T04:53:03.618Z,97.0
2022-10-31T04:58:09.890Z,97.0
2022-10-31T05:03:15.058Z,97.0
2022-10-31T05:08:21.267Z,97.5
2022-10-31T05:13:27.484Z,97.5
2022-10-31T05:18:33.684Z,97.0
2022-10-31T05:28:46.130Z,97.0
2022-10-31T05:33:52.305Z,97.0
2022-10-31T05:38:58.518Z,97.0
2022-10-31T05:44:04.725Z,97.0
2022-10-31T05:49:10.935Z,97.0
2022-10-31T05:54:17.143Z,97.0
2022-10-31T05:59:23.357Z,97.0
2022-10-31T06:04:29.612Z,97.0
2022-10-31T06:09:35.763Z,97.0
2022-10-31T06:14:41.987Z,97.0
2022-10-31T06:24:54.396Z,97.0
2022-10-31T06:30:00.605Z,97.0
2022-10-31T06:35:06.811Z,97.0
2022-10-31T06:40:13.013Z,97.0
2022-10-31T06:45:19.229Z,97.0
2022-10-31T06:50:25.430Z,97.5
2022-10-31T06:55:30.670Z,97.5
2022-10-31T07:00:36.977Z,97.5
2022-10-31T07:05:43.086Z,97.5
2022-10-31T07:10:48.327Z,98.0
2022-10-31T07:15:54.534Z,98.0
2022-10-31T07:21:00.783Z,98.0
2022-10-31T07:26:06.945Z,98.5
2022-10-31T07:31:13.157Z,98.5
2022-10-31T07:36:19.370Z,98.5
2022-10-31T07:41:25.588Z,98.5
2022-10-31T07:46:31.854Z,98.5
2022-10-31T07:51:39.694Z,98.5
2022-10-31T07:56:43.216Z,98.5
2022-10-31T08:01:49.422Z,98.5
2022-10-31T08:06:55.633Z,98.5
2022-10-31T08:12:01.839Z,98.5
2022-10-31T08:17:08.049Z,98.5
2022-10-31T08:22:14.255Z,98.5
2022-10-31T08:27:20.450Z,98.5
2022-10-31T08:32:26.668Z,98.5
2022-10-31T08:37:32.869Z,98.5
2022-10-31T08:42:39.081Z,98.5
2022-10-31T08:47:45.283Z,98.5
2022-10-31T08:53:04.762Z,98.5
2022-10-31T08:57:56.856Z,98.5
2022-10-31T09:03:02.950Z,98.5
2022-10-31T09:08:13.157Z,98.5
2022-10-31T09:13:14.465Z,98.5
2022-10-31T09:18:20.624Z,98.5
2022-10-31T09:23:26.835Z,98.5
2022-10-31T09:28:33.051Z,98.5
2022-10-31T09:33:39.247Z,98.5
2022-10-31T09:38:45.458Z,98.5
2022-10-31T09:43:51.669Z,98.5
2022-10-31T09:48:57.883Z,98.5
2022-10-31T09:54:04.080Z,98.5
2022-10-31T09:59:10.292Z,98.5
2022-10-31T10:04:19.884Z,98.5
2022-10-31T10:09:22.714Z,98.5
2022-10-31T10:14:28.928Z,98.5
2022-10-31T10:19:35.126Z,98.5
2022-10-31T10:24:41.332Z,98.5
2022-10-31T10:29:47.540Z,98.5
2022-10-31T10:39:59.951Z,98.5
2022-10-31T10:45:06.166Z,98.5
2022-10-31T10:50:12.383Z,98.5
2022-10-31T10:55:18.579Z,98.5
2022-10-31T11:00:23.850Z,98.5
2022-10-31T11:10:36.246Z,98.0
2022-10-31T11:15:41.470Z,97.5
2022-10-31T11:25:53.903Z,97.0
2022-10-31T11:31:00.098Z,96.5
2022-10-31T11:36:06.309Z,96.5
2022-10-31T11:41:12.522Z,96.5
2022-10-31T11:46:18.728Z,96.0
2022-10-31T11:51:24.937Z,96.0
2022-10-31T11:56:31.140Z,96.0
2022-10-31T12:01:42.385Z,95.5
2022-10-31T12:06:43.603Z,95.0
2022-10-31T12:11:49.766Z,94.5
2022-10-31T12:16:55.974Z,94.0
2022-10-31T12:22:02.198Z,93.5
2022-10-31T12:27:08.399Z,93.0
2022-10-31T12:32:14.599Z,92.5
2022-10-31T12:37:20.811Z,92.5
2022-10-31T12:42:27.026Z,92.5
2022-10-31T12:47:33.224Z,92.0
2022-10-31T12:52:39.434Z,92.0
2022-10-31T12:57:45.655Z,91.5
2022-10-31T13:02:51.854Z,91.0
2022-10-31T13:07:57.156Z,91.0
2022-10-31T13:13:03.640Z,90.5
2022-10-31T13:18:09.516Z,90.5
2022-10-31T13:23:36.566Z,90.5
2022-10-31T13:28:20.952Z,90.0
2022-10-31T13:33:27.163Z,90.0
2022-10-31T13:38:33.365Z,90.0
2022-10-31T13:43:39.578Z,90.0
2022-10-31T13:48:45.779Z,90.5
2022-10-31T13:53:51.996Z,90.5
2022-10-31T13:58:58.204Z,91.0
2022-10-31T14:04:14.771Z,90.5
2022-10-31T14:09:10.618Z,90.5
2022-10-31T14:14:16.828Z,90.5
2022-10-31T14:19:23.038Z,91.0
2022-10-31T14:24:29.245Z,91.0
2022-10-31T14:29:35.452Z,91.0
2022-10-31T14:34:41.665Z,91.5
2022-10-31T14:39:47.872Z,91.5
2022-10-31T14:44:54.080Z,91.5
2022-10-31T14:50:00.292Z,91.5
2022-10-31T14:55:06.507Z,92.0
2022-10-31T15:00:12.707Z,92.0
2022-10-31T15:05:18.912Z,92.0
2022-10-31T15:10:25.125Z,92.0
2022-10-31T15:15:30.362Z,92.0
2022-10-31T15:20:36.589Z,92.0
2022-10-31T15:25:42.778Z,92.0
2022-10-31T15:30:48.015Z,92.5
2022-10-31T15:35:54.223Z,92.5
2022-10-31T15:41:00.423Z,92.5
2022-10-31T15:46:06.633Z,92.5
2022-10-31T15:51:12.917Z,92.5
2022-10-31T15:56:19.056Z,92.5
2022-10-31T16:01:25.395Z,92.5
2022-10-31T16:06:31.470Z,93.0
2022-10-31T16:11:37.679Z,93.0
2022-10-31T16:16:43.886Z,93.0
2022-10-31T16:21:50.092Z,93.0
2022-10-31T16:26:56.307Z,93.5
2022-10-31T16:32:02.518Z,93.5
2022-10-31T16:37:08.732Z,93.5
2022-10-31T16:42:14.968Z,93.5
2022-10-31T16:47:23.308Z,93.5
2022-10-31T16:52:27.348Z,93.5
2022-10-31T16:57:33.559Z,93.5
2022-10-31T17:02:39.819Z,93.5
2022-10-31T17:07:45.965Z,93.5
2022-10-31T17:12:52.179Z,93.5
2022-10-31T17:17:57.483Z,93.5
2022-10-31T17:23:03.946Z,93.5
2022-10-31T17:28:08.855Z,93.5
2022-10-31T17:33:15.067Z,93.5
2022-10-31T17:38:21.276Z,93.5
2022-10-31T17:43:27.488Z,93.5
2022-10-31T17:48:33.689Z,93.5
2022-10-31T17:53:39.894Z,93.0
2022-10-31T17:58:46.110Z,93.0
2022-10-31T18:03:52.314Z,93.0
2022-10-31T18:08:58.540Z,92.5
2022-10-31T18:14:04.734Z,92.5
2022-10-31T18:19:10.942Z,92.5
2022-10-31T18:24:17.146Z,92.5
2022-10-31T18:29:23.364Z,92.0
2022-10-31T18:34:29.566Z,92.0
2022-10-31T18:39:35.778Z,92.0
2022-10-31T18:44:41.984Z,92.0
2022-10-31T18:49:48.198Z,92.0
2022-10-31T18:54:54.404Z,92.0
2022-10-31T19:00:00.670Z,92.0
2022-10-31T19:05:06.809Z,92.0
2022-10-31T19:10:13.027Z,92.0
2022-10-31T19:15:18.262Z,92.0
2022-10-31T19:20:24.473Z,92.0
2022-10-31T19:25:29.704Z,92.5
2022-10-31T19:30:35.909Z,92.5
2022-10-31T19:35:42.122Z,92.5
2022-10-31T19:40:48.329Z,92.5
2022-10-31T19:45:54.543Z,92.5
2022-10-31T19:51:00.746Z,92.5
2022-10-31T19:56:06.956Z,92.5
2022-10-31T20:01:13.249Z,92.5
2022-10-31T20:06:19.368Z,92.5
2022-10-31T20:11:25.580Z,92.5
2022-10-31T20:16:31.794Z,92.5
2022-10-31T20:21:37.994Z,92.5
2022-10-31T20:26:44.206Z,92.5
2022-10-31T20:31:50.407Z,93.0
2022-10-31T20:36:56.621Z,93.0
2022-10-31T20:42:02.832Z,92.5
2022-10-31T20:47:09.055Z,92.5
2022-10-31T20:52:15.248Z,92.5
2022-10-31T20:57:21.460Z,92.5
2022-10-31T21:02:27.856Z,92.5
2022-10-31T21:07:33.872Z,92.5
2022-10-31T21:12:39.112Z,92.5
2022-10-31T21:17:45.307Z,92.5
2022-10-31T21:22:51.538Z,92.5
2022-10-31T21:27:57.751Z,92.5
2022-10-31T21:33:03.940Z,92.5
2022-10-31T21:38:10.147Z,92.5
2022-10-31T21:43:16.356Z,92.5
2022-10-31T21:48:22.558Z,92.5
2022-10-31T21:53:28.791Z,92.5
2022-10-31T21:58:37.768Z,92.5
2022-10-31T22:03:41.186Z,92.5
2022-10-31T22:08:47.398Z,92.5
2022-10-31T22:13:53.601Z,92.5
2022-10-31T22:18:59.966Z,92.5
2022-10-31T22:24:07.951Z,92.5
2022-10-31T22:29:12.228Z,92.5
2022-10-31T22:34:18.436Z,92.5
2022-10-31T22:39:24.643Z,92.5
2022-10-31T22:44:30.849Z,92.5
2022-10-31T22:49:37.060Z,92.5
2022-10-31T22:54:43.265Z,92.5
2022-10-31T22:59:48.500Z,92.5
2022-10-31T23:04:54.727Z,92.5
2022-10-31T23:09:59.950Z,92.5
2022-10-31T23:15:06.156Z,92.5
2022-10-31T23:20:11.396Z,92.5
2022-10-31T23:25:17.600Z,92.5
2022-10-31T23:30:23.814Z,92.5
2022-10-31T23:35:30.020Z,92.5
2022-10-31T23:40:36.234Z,92.5
2022-10-31T23:45:42.436Z,92.0
2022-10-31T23:50:48.643Z,92.0
2022-10-31T23:55:54.857Z,92.0
